EDT,Max TemperatureF,Mean TemperatureF,Min TemperatureF,Max Dew PointF,MeanDew PointF,Min DewpointF,Max Humidity, Mean Humidity, Min Humidity, Max Sea Level PressureIn, Mean Sea Level PressureIn, Min Sea Level PressureIn, Max VisibilityMiles, Mean VisibilityMiles, Min VisibilityMiles, Max Wind SpeedMPH, Mean Wind SpeedMPH, Max Gust SpeedMPH,PrecipitationIn, CloudCover, Events, WindDirDegrees
2014-3-1,17,10,2,9,3,-9,92,66,40,30.37,30.13,29.99,10,7,2,18,8,23,0.04,6,Snow,268
2014-3-2,12,4,-4,-8,-12,-18,69,51,32,30.42,30.37,30.29,10,10,10,17,8,23,0.00,1,,296
2014-3-3,17,4,-10,-4,-11,-15,83,54,25,30.51,30.43,30.37,10,10,10,12,5,15,0.00,1,,293
2014-3-4,20,11,1,14,8,-3,91,79,66,30.35,30.25,30.17,10,4,1,9,5,13,0.15,8,Snow,230
2014-3-5,17,2,-13,7,2,-16,96,79,61,30.65,30.49,30.32,10,7,1,18,6,21,0.01,6,Snow,360
2014-3-6,22,2,-19,9,-4,-25,81,67,52,30.62,30.45,30.17,10,10,1,21,7,24,0.00,0,,148
2014-3-7,44,21,-2,26,14,-4,87,62,36,30.15,29.96,29.82,10,9,6,17,7,22,T,4,,221
2014-3-8,29,21,12,24,15,6,84,70,55,30.20,30.11,29.93,10,9,2,20,10,25,T,5,Snow,346
2014-3-9,37,19,0,21,10,-4,87,65,43,30.18,29.95,29.66,10,10,7,21,7,29,0.00,3,,225
2014-3-10,54,40,25,32,27,21,85,65,44,29.68,29.56,29.39,10,10,8,16,6,25,0.00,2,,243
2014-3-11,46,36,26,30,26,19,92,71,49,29.84,29.69,29.55,10,10,10,23,8,29,0.00,0,,344
2014-3-12,28,16,4,22,6,-3,81,66,51,30.09,29.93,29.80,10,8,0,26,16,31,T,4,Snow,355
2014-3-13,30,14,-2,14,1,-8,83,57,15,30.12,30.00,29.83,10,10,10,14,6,18,0.00,4,,227
2014-3-14,50,37,24,35,28,14,96,71,46,29.80,29.53,29.35,10,9,7,20,10,25,0.07,6,Rain,239
2014-3-15,33,21,8,31,14,1,89,73,56,30.38,29.96,29.56,10,10,6,25,13,34,T,7,Snow,304
2014-3-16,19,10,1,3,-1,-8,91,61,31,30.52,30.42,30.29,10,7,1,14,5,17,0.01,4,Snow,323
2014-3-17,21,9,-3,10,3,-7,86,71,56,30.28,30.13,30.03,10,10,10,18,7,23,T,4,,129
2014-3-18,32,26,20,27,21,12,85,78,71,30.09,30.05,29.99,10,10,9,18,9,22,0.00,4,,115
2014-3-19,35,32,29,35,31,24,100,89,78,29.99,29.65,29.52,10,5,1,16,8,24,0.07,8,Rain,106
2014-3-20,35,28,20,27,21,12,85,63,41,30.04,29.81,29.64,10,8,2,23,11,30,0.02,6,Snow,292
2014-3-21,36,25,13,27,18,11,92,68,44,30.09,29.99,29.79,10,9,0,17,6,23,0.21,3,Fog-Snow,127
2014-3-22,31,20,9,27,18,1,100,75,50,30.32,29.98,29.75,10,9,0,22,11,32,0.03,6,Fog-Snow,319
2014-3-23,23,14,4,5,2,-1,87,63,38,30.39,30.35,30.30,10,10,9,17,8,23,T,4,,295
2014-3-24,26,12,-3,12,3,-8,87,60,33,30.36,30.21,30.03,10,9,1,16,5,22,0.01,5,Snow,257
2014-3-25,24,15,6,11,4,-4,84,64,43,30.18,29.99,29.90,10,10,6,21,8,29,T,5,Snow,295
2014-3-26,29,13,-4,12,1,-7,79,57,35,30.32,30.23,30.15,10,10,10,17,6,22,0.00,2,,236
2014-3-27,36,30,24,33,24,13,96,78,60,30.14,29.90,29.63,10,6,1,20,12,25,0.28,8,Rain-Snow,173
2014-3-28,40,34,27,35,31,23,100,85,69,30.27,29.74,29.47,10,6,0,22,10,27,0.27,7,Fog-Rain-Snow,312
2014-3-29,34,28,22,26,23,18,92,77,61,30.32,30.28,30.25,10,10,10,13,5,17,0.00,3,,22
2014-3-30,42,29,16,22,17,12,92,65,37,30.28,30.21,30.12,10,10,10,12,5,14,0.00,0,,17
2014-3-31,48,35,22,28,24,20,88,65,42,30.19,30.13,29.98,10,10,10,18,8,22,0.00,0,,127